sensor_id;sensor_type;location;lat;lon;timestamp;pressure;altitude;pressure_sealevel;temperature;humidity
8320;BME280;4197;42.130;24.746;2022-08-19T00:01:54;98948.03;;;25.05;52.46
8320;BME280;4197;42.130;24.746;2022-08-19T00:04:28;98946.69;;;25.00;52.64
8320;BME280;4197;42.130;24.746;2022-08-19T00:06:57;98950.06;;;24.95;52.74
8320;BME280;4197;42.130;24.746;2022-08-19T00:09:26;98953.78;;;24.92;53.28
8320;BME280;4197;42.130;24.746;2022-08-19T00:11:55;98957.47;;;24.89;53.83
8320;BME280;4197;42.130;24.746;2022-08-19T00:14:25;98954.84;;;24.85;54.47
8320;BME280;4197;42.130;24.746;2022-08-19T00:16:53;98957.94;;;24.78;54.91
8320;BME280;4197;42.130;24.746;2022-08-19T00:19:23;98962.56;;;24.81;54.88
8320;BME280;4197;42.130;24.746;2022-08-19T00:21:52;98960.84;;;24.75;54.99
8320;BME280;4197;42.130;24.746;2022-08-19T00:24:22;98954.25;;;24.72;55.40
8320;BME280;4197;42.130;24.746;2022-08-19T00:26:52;98951.94;;;24.70;55.74
8320;BME280;4197;42.130;24.746;2022-08-19T00:29:23;98954.72;;;24.70;56.17
8320;BME280;4197;42.130;24.746;2022-08-19T00:31:52;98956.56;;;24.74;56.04
8320;BME280;4197;42.130;24.746;2022-08-19T00:34:21;98947.63;;;24.69;56.64
8320;BME280;4197;42.130;24.746;2022-08-19T00:36:50;98952.22;;;24.63;57.06
8320;BME280;4197;42.130;24.746;2022-08-19T00:39:19;98942.84;;;24.70;56.78
8320;BME280;4197;42.130;24.746;2022-08-19T00:41:48;98942.06;;;24.60;57.26
8320;BME280;4197;42.130;24.746;2022-08-19T00:44:19;98941.63;;;24.53;57.58
8320;BME280;4197;42.130;24.746;2022-08-19T00:46:54;98933.44;;;24.49;57.99
8320;BME280;4197;42.130;24.746;2022-08-19T00:49:27;98930.22;;;24.51;58.06
8320;BME280;4197;42.130;24.746;2022-08-19T00:51:59;98920.34;;;24.49;58.19
8320;BME280;4197;42.130;24.746;2022-08-19T00:54:30;98926.38;;;24.57;58.36
8320;BME280;4197;42.130;24.746;2022-08-19T00:57:01;98921.91;;;24.51;58.66
8320;BME280;4197;42.130;24.746;2022-08-19T00:59:34;98920.50;;;24.46;58.71
8320;BME280;4197;42.130;24.746;2022-08-19T01:02:25;98920.00;;;24.38;59.30
8320;BME280;4197;42.130;24.746;2022-08-19T01:04:53;98908.78;;;24.23;60.14
8320;BME280;4197;42.130;24.746;2022-08-19T01:07:22;98916.00;;;24.21;60.08
8320;BME280;4197;42.130;24.746;2022-08-19T01:09:52;98914.16;;;24.18;60.46
8320;BME280;4197;42.130;24.746;2022-08-19T01:12:20;98908.75;;;24.14;60.91
8320;BME280;4197;42.130;24.746;2022-08-19T01:14:50;98906.28;;;24.07;61.15
8320;BME280;4197;42.130;24.746;2022-08-19T01:17:20;98909.22;;;24.13;61.04
8320;BME280;4197;42.130;24.746;2022-08-19T01:19:48;98906.59;;;24.09;61.44
8320;BME280;4197;42.130;24.746;2022-08-19T01:22:25;98913.81;;;24.07;61.44
8320;BME280;4197;42.130;24.746;2022-08-19T01:24:59;98906.72;;;23.96;61.92
8320;BME280;4197;42.130;24.746;2022-08-19T01:27:37;98919.63;;;23.90;62.21
8320;BME280;4197;42.130;24.746;2022-08-19T01:30:12;98913.59;;;23.82;62.29
8320;BME280;4197;42.130;24.746;2022-08-19T01:32:41;98919.28;;;23.79;62.41
8320;BME280;4197;42.130;24.746;2022-08-19T01:35:11;98920.00;;;23.70;62.53
8320;BME280;4197;42.130;24.746;2022-08-19T01:37:47;98926.56;;;23.64;63.30
8320;BME280;4197;42.130;24.746;2022-08-19T01:40:17;98939.78;;;23.59;63.67
8320;BME280;4197;42.130;24.746;2022-08-19T01:42:47;98938.53;;;23.51;63.89
8320;BME280;4197;42.130;24.746;2022-08-19T01:45:16;98942.53;;;23.50;64.09
8320;BME280;4197;42.130;24.746;2022-08-19T01:47:44;98947.16;;;23.53;63.88
8320;BME280;4197;42.130;24.746;2022-08-19T01:50:27;98953.63;;;23.59;64.04
8320;BME280;4197;42.130;24.746;2022-08-19T01:52:56;98964.25;;;23.61;64.68
8320;BME280;4197;42.130;24.746;2022-08-19T01:55:34;98970.69;;;23.58;64.37
8320;BME280;4197;42.130;24.746;2022-08-19T01:58:11;98962.19;;;23.52;64.29
8320;BME280;4197;42.130;24.746;2022-08-19T02:00:40;98955.28;;;23.48;64.62
8320;BME280;4197;42.130;24.746;2022-08-19T02:03:09;98964.31;;;23.39;65.45
8320;BME280;4197;42.130;24.746;2022-08-19T02:05:38;98971.50;;;23.36;65.64
8320;BME280;4197;42.130;24.746;2022-08-19T02:08:08;98971.50;;;23.36;65.49
8320;BME280;4197;42.130;24.746;2022-08-19T02:10:39;98975.50;;;23.35;65.85
8320;BME280;4197;42.130;24.746;2022-08-19T02:13:08;98974.09;;;23.31;66.41
8320;BME280;4197;42.130;24.746;2022-08-19T02:15:37;98974.69;;;23.26;66.59
8320;BME280;4197;42.130;24.746;2022-08-19T02:18:06;98977.44;;;23.26;66.50
8320;BME280;4197;42.130;24.746;2022-08-19T02:20:35;98982.97;;;23.26;67.01
8320;BME280;4197;42.130;24.746;2022-08-19T02:23:04;98993.38;;;23.22;67.21
8320;BME280;4197;42.130;24.746;2022-08-19T02:25:45;98989.09;;;23.21;66.92
8320;BME280;4197;42.130;24.746;2022-08-19T02:28:14;98984.84;;;23.29;67.26
8320;BME280;4197;42.130;24.746;2022-08-19T02:30:45;98985.28;;;23.27;67.49
8320;BME280;4197;42.130;24.746;2022-08-19T02:33:16;98991.72;;;23.24;67.89
8320;BME280;4197;42.130;24.746;2022-08-19T02:35:45;98996.81;;;23.26;67.62
8320;BME280;4197;42.130;24.746;2022-08-19T02:38:14;98989.28;;;23.26;67.74
8320;BME280;4197;42.130;24.746;2022-08-19T02:41:00;98990.03;;;23.27;67.91
8320;BME280;4197;42.130;24.746;2022-08-19T02:43:30;98990.81;;;23.27;67.63
8320;BME280;4197;42.130;24.746;2022-08-19T02:46:11;99004.97;;;23.29;67.99
8320;BME280;4197;42.130;24.746;2022-08-19T02:48:40;99005.09;;;23.26;67.85
8320;BME280;4197;42.130;24.746;2022-08-19T02:51:08;99005.69;;;23.21;68.24
8320;BME280;4197;42.130;24.746;2022-08-19T02:53:43;99001.69;;;23.22;68.81
8320;BME280;4197;42.130;24.746;2022-08-19T02:56:13;98998.34;;;23.27;68.16
8320;BME280;4197;42.130;24.746;2022-08-19T02:58:41;99001.25;;;23.23;68.21
8320;BME280;4197;42.130;24.746;2022-08-19T03:01:11;99003.81;;;23.18;68.66
8320;BME280;4197;42.130;24.746;2022-08-19T03:03:48;99014.50;;;23.06;69.05
8320;BME280;4197;42.130;24.746;2022-08-19T03:06:18;99009.88;;;23.03;69.29
8320;BME280;4197;42.130;24.746;2022-08-19T03:08:47;99006.75;;;23.01;69.60
8320;BME280;4197;42.130;24.746;2022-08-19T03:11:19;99014.72;;;22.99;69.66
8320;BME280;4197;42.130;24.746;2022-08-19T03:13:49;99017.81;;;23.01;69.75
8320;BME280;4197;42.130;24.746;2022-08-19T03:16:18;99004.13;;;22.98;69.44
8320;BME280;4197;42.130;24.746;2022-08-19T03:18:47;99010.88;;;22.97;69.88
8320;BME280;4197;42.130;24.746;2022-08-19T03:21:19;99012.19;;;22.92;69.93
8320;BME280;4197;42.130;24.746;2022-08-19T03:23:48;99019.84;;;22.88;70.23
8320;BME280;4197;42.130;24.746;2022-08-19T03:26:17;99019.19;;;22.84;70.69
8320;BME280;4197;42.130;24.746;2022-08-19T03:28:46;99032.34;;;22.80;70.60
8320;BME280;4197;42.130;24.746;2022-08-19T03:31:26;99024.63;;;22.75;70.15
8320;BME280;4197;42.130;24.746;2022-08-19T03:34:12;99035.38;;;22.73;70.06
8320;BME280;4197;42.130;24.746;2022-08-19T03:36:41;99034.47;;;22.76;70.28
8320;BME280;4197;42.130;24.746;2022-08-19T03:39:10;99028.69;;;22.83;70.29
8320;BME280;4197;42.130;24.746;2022-08-19T03:41:42;99031.03;;;22.84;70.27
8320;BME280;4197;42.130;24.746;2022-08-19T03:44:16;99035.31;;;22.85;70.45
8320;BME280;4197;42.130;24.746;2022-08-19T03:46:48;99040.41;;;22.87;70.87
8320;BME280;4197;42.130;24.746;2022-08-19T03:49:17;99031.38;;;23.08;69.76
8320;BME280;4197;42.130;24.746;2022-08-19T03:51:58;99038.47;;;23.09;70.02
8320;BME280;4197;42.130;24.746;2022-08-19T03:54:27;99038.81;;;23.11;70.15
8320;BME280;4197;42.130;24.746;2022-08-19T03:56:57;99046.78;;;23.09;69.70
8320;BME280;4197;42.130;24.746;2022-08-19T03:59:30;99040.34;;;23.12;69.62
8320;BME280;4197;42.130;24.746;2022-08-19T04:02:01;99039.44;;;23.15;69.73
8320;BME280;4197;42.130;24.746;2022-08-19T04:04:30;99042.28;;;23.25;69.50
8320;BME280;4197;42.130;24.746;2022-08-19T04:06:58;99038.03;;;23.33;69.33
8320;BME280;4197;42.130;24.746;2022-08-19T04:09:26;99041.16;;;23.44;68.70
8320;BME280;4197;42.130;24.746;2022-08-19T04:11:57;99038.16;;;23.51;68.48
8320;BME280;4197;42.130;24.746;2022-08-19T04:14:27;99041.25;;;23.53;68.31
8320;BME280;4197;42.130;24.746;2022-08-19T04:16:57;99054.56;;;23.68;67.82
8320;BME280;4197;42.130;24.746;2022-08-19T04:19:26;99052.50;;;23.81;67.55
8320;BME280;4197;42.130;24.746;2022-08-19T04:21:56;99055.22;;;23.72;67.60
8320;BME280;4197;42.130;24.746;2022-08-19T04:24:25;99057.31;;;23.68;68.49
8320;BME280;4197;42.130;24.746;2022-08-19T04:26:54;99042.72;;;23.67;69.07
8320;BME280;4197;42.130;24.746;2022-08-19T04:29:25;99052.09;;;23.70;68.77
8320;BME280;4197;42.130;24.746;2022-08-19T04:31:55;99052.00;;;23.73;69.54
8320;BME280;4197;42.130;24.746;2022-08-19T04:34:25;99052.63;;;23.77;69.18
8320;BME280;4197;42.130;24.746;2022-08-19T04:36:56;99057.69;;;24.10;67.52
8320;BME280;4197;42.130;24.746;2022-08-19T04:39:30;99057.31;;;24.30;66.41
8320;BME280;4197;42.130;24.746;2022-08-19T04:42:16;99061.81;;;24.37;66.29
8320;BME280;4197;42.130;24.746;2022-08-19T04:45:05;99061.97;;;24.42;65.53
8320;BME280;4197;42.130;24.746;2022-08-19T04:47:35;99062.03;;;24.61;64.69
8320;BME280;4197;42.130;24.746;2022-08-19T04:50:24;99065.59;;;24.61;64.77
8320;BME280;4197;42.130;24.746;2022-08-19T04:52:52;99065.13;;;24.63;64.41
8320;BME280;4197;42.130;24.746;2022-08-19T04:55:23;99058.03;;;24.53;64.77
8320;BME280;4197;42.130;24.746;2022-08-19T04:57:53;99058.22;;;24.67;64.99
8320;BME280;4197;42.130;24.746;2022-08-19T05:00:23;99061.63;;;24.81;64.46
8320;BME280;4197;42.130;24.746;2022-08-19T05:02:52;99066.41;;;24.89;64.06
8320;BME280;4197;42.130;24.746;2022-08-19T05:05:20;99059.31;;;25.07;62.97
8320;BME280;4197;42.130;24.746;2022-08-19T05:07:48;99064.13;;;25.34;60.62
8320;BME280;4197;42.130;24.746;2022-08-19T05:10:17;99064.53;;;25.60;60.20
8320;BME280;4197;42.130;24.746;2022-08-19T05:12:45;99054.50;;;25.72;60.06
8320;BME280;4197;42.130;24.746;2022-08-19T05:15:13;99063.56;;;25.81;59.81
8320;BME280;4197;42.130;24.746;2022-08-19T05:17:43;99067.13;;;25.91;60.05
8320;BME280;4197;42.130;24.746;2022-08-19T05:20:31;99073.72;;;26.03;59.06
8320;BME280;4197;42.130;24.746;2022-08-19T05:23:20;99081.69;;;26.19;58.35
8320;BME280;4197;42.130;24.746;2022-08-19T05:25:49;99074.56;;;26.18;57.99
8320;BME280;4197;42.130;24.746;2022-08-19T05:28:20;99072.84;;;26.30;54.67
8320;BME280;4197;42.130;24.746;2022-08-19T05:30:48;99080.47;;;26.44;51.77
8320;BME280;4197;42.130;24.746;2022-08-19T05:33:19;99066.41;;;26.48;51.26
8320;BME280;4197;42.130;24.746;2022-08-19T05:35:47;99070.63;;;26.67;51.12
8320;BME280;4197;42.130;24.746;2022-08-19T05:38:17;99082.72;;;26.64;51.63
8320;BME280;4197;42.130;24.746;2022-08-19T05:40:45;99078.41;;;26.63;51.04
8320;BME280;4197;42.130;24.746;2022-08-19T05:43:16;99083.66;;;26.61;50.15
8320;BME280;4197;42.130;24.746;2022-08-19T05:45:45;99074.72;;;26.57;50.23
8320;BME280;4197;42.130;24.746;2022-08-19T05:48:14;99073.47;;;26.58;49.90
8320;BME280;4197;42.130;24.746;2022-08-19T05:50:45;99082.09;;;26.60;49.57
8320;BME280;4197;42.130;24.746;2022-08-19T05:53:17;99076.59;;;26.51;50.45
8320;BME280;4197;42.130;24.746;2022-08-19T05:55:45;99076.94;;;26.44;50.90
8320;BME280;4197;42.130;24.746;2022-08-19T05:58:13;99074.19;;;26.35;51.46
8320;BME280;4197;42.130;24.746;2022-08-19T06:00:43;99079.16;;;26.31;51.97
8320;BME280;4197;42.130;24.746;2022-08-19T06:03:12;99083.47;;;26.32;51.44
8320;BME280;4197;42.130;24.746;2022-08-19T06:05:41;99090.22;;;26.40;51.52
8320;BME280;4197;42.130;24.746;2022-08-19T06:08:19;99085.28;;;26.44;51.63
8320;BME280;4197;42.130;24.746;2022-08-19T06:11:16;99084.59;;;26.49;52.30
8320;BME280;4197;42.130;24.746;2022-08-19T06:13:45;99093.75;;;26.50;52.08
8320;BME280;4197;42.130;24.746;2022-08-19T06:16:26;99094.81;;;26.52;50.80
8320;BME280;4197;42.130;24.746;2022-08-19T06:18:55;99089.41;;;26.58;50.48
8320;BME280;4197;42.130;24.746;2022-08-19T06:21:27;99089.97;;;26.62;50.78
8320;BME280;4197;42.130;24.746;2022-08-19T06:23:57;99088.84;;;26.68;50.70
8320;BME280;4197;42.130;24.746;2022-08-19T06:26:26;99086.97;;;26.75;50.19
8320;BME280;4197;42.130;24.746;2022-08-19T06:28:54;99086.63;;;26.82;49.65
8320;BME280;4197;42.130;24.746;2022-08-19T06:31:24;99094.91;;;26.91;49.43
8320;BME280;4197;42.130;24.746;2022-08-19T06:33:53;99101.06;;;26.95;49.47
8320;BME280;4197;42.130;24.746;2022-08-19T06:36:24;99093.44;;;27.05;49.66
8320;BME280;4197;42.130;24.746;2022-08-19T06:38:54;99106.38;;;27.08;48.16
8320;BME280;4197;42.130;24.746;2022-08-19T06:41:25;99106.75;;;27.25;47.26
8320;BME280;4197;42.130;24.746;2022-08-19T06:43:54;99101.63;;;27.23;47.55
8320;BME280;4197;42.130;24.746;2022-08-19T06:46:24;99098.91;;;27.38;47.25
8320;BME280;4197;42.130;24.746;2022-08-19T06:48:53;99107.94;;;27.48;47.43
8320;BME280;4197;42.130;24.746;2022-08-19T06:51:21;99109.41;;;27.58;47.53
8320;BME280;4197;42.130;24.746;2022-08-19T06:53:52;99106.13;;;27.59;47.08
8320;BME280;4197;42.130;24.746;2022-08-19T06:56:23;99107.72;;;27.51;47.36
8320;BME280;4197;42.130;24.746;2022-08-19T06:58:54;99105.34;;;27.44;48.25
8320;BME280;4197;42.130;24.746;2022-08-19T07:01:22;99106.97;;;27.51;48.32
8320;BME280;4197;42.130;24.746;2022-08-19T07:03:50;99104.88;;;27.61;48.23
8320;BME280;4197;42.130;24.746;2022-08-19T07:06:19;99096.53;;;27.75;47.72
8320;BME280;4197;42.130;24.746;2022-08-19T07:09:08;99098.97;;;27.83;47.24
8320;BME280;4197;42.130;24.746;2022-08-19T07:11:37;99097.34;;;27.91;47.39
8320;BME280;4197;42.130;24.746;2022-08-19T07:14:07;99094.53;;;27.91;47.30
8320;BME280;4197;42.130;24.746;2022-08-19T07:16:46;99095.19;;;28.00;47.26
8320;BME280;4197;42.130;24.746;2022-08-19T07:19:16;99086.03;;;28.15;45.58
8320;BME280;4197;42.130;24.746;2022-08-19T07:21:48;99082.56;;;28.20;45.57
8320;BME280;4197;42.130;24.746;2022-08-19T07:24:20;99081.13;;;28.24;45.84
8320;BME280;4197;42.130;24.746;2022-08-19T07:26:52;99084.09;;;28.36;45.58
8320;BME280;4197;42.130;24.746;2022-08-19T07:29:22;99080.44;;;28.44;45.04
8320;BME280;4197;42.130;24.746;2022-08-19T07:31:55;99070.78;;;28.60;44.15
8320;BME280;4197;42.130;24.746;2022-08-19T07:34:27;99081.84;;;28.75;43.91
8320;BME280;4197;42.130;24.746;2022-08-19T07:36:56;99077.06;;;28.96;42.45
8320;BME280;4197;42.130;24.746;2022-08-19T07:39:29;99077.13;;;29.02;42.12
8320;BME280;4197;42.130;24.746;2022-08-19T07:41:59;99076.00;;;29.14;41.41
8320;BME280;4197;42.130;24.746;2022-08-19T07:44:29;99077.81;;;29.17;41.61
8320;BME280;4197;42.130;24.746;2022-08-19T07:46:58;99075.84;;;29.23;41.04
8320;BME280;4197;42.130;24.746;2022-08-19T07:49:27;99080.03;;;29.33;41.32
8320;BME280;4197;42.130;24.746;2022-08-19T07:51:57;99072.56;;;29.51;40.91
8320;BME280;4197;42.130;24.746;2022-08-19T07:54:27;99073.13;;;29.55;40.38
8320;BME280;4197;42.130;24.746;2022-08-19T07:56:57;99077.06;;;29.63;40.17
8320;BME280;4197;42.130;24.746;2022-08-19T07:59:25;99074.03;;;29.67;39.80
8320;BME280;4197;42.130;24.746;2022-08-19T08:01:57;99068.97;;;29.71;40.07
8320;BME280;4197;42.130;24.746;2022-08-19T08:04:27;99074.88;;;29.78;39.54
8320;BME280;4197;42.130;24.746;2022-08-19T08:07:14;99076.75;;;29.87;39.02
8320;BME280;4197;42.130;24.746;2022-08-19T08:10:00;99073.06;;;30.01;39.53
8320;BME280;4197;42.130;24.746;2022-08-19T08:12:32;99076.16;;;30.09;38.85
8320;BME280;4197;42.130;24.746;2022-08-19T08:15:07;99074.44;;;30.17;39.02
8320;BME280;4197;42.130;24.746;2022-08-19T08:17:40;99076.09;;;30.30;37.29
8320;BME280;4197;42.130;24.746;2022-08-19T08:20:15;99066.69;;;30.33;37.80
8320;BME280;4197;42.130;24.746;2022-08-19T08:22:44;99060.09;;;30.36;37.32
8320;BME280;4197;42.130;24.746;2022-08-19T08:25:31;99063.16;;;30.38;37.22
8320;BME280;4197;42.130;24.746;2022-08-19T08:28:01;99062.63;;;30.34;38.04
8320;BME280;4197;42.130;24.746;2022-08-19T08:30:30;99059.09;;;30.39;38.09
8320;BME280;4197;42.130;24.746;2022-08-19T08:33:01;99060.22;;;30.58;36.83
8320;BME280;4197;42.130;24.746;2022-08-19T08:35:29;99062.28;;;30.63;36.72
8320;BME280;4197;42.130;24.746;2022-08-19T08:37:59;99062.53;;;30.65;37.10
8320;BME280;4197;42.130;24.746;2022-08-19T08:40:30;99059.34;;;30.89;37.01
8320;BME280;4197;42.130;24.746;2022-08-19T08:43:09;99049.00;;;31.07;37.61
8320;BME280;4197;42.130;24.746;2022-08-19T08:45:45;99052.06;;;31.20;37.11
8320;BME280;4197;42.130;24.746;2022-08-19T08:48:26;99044.19;;;31.24;37.20
8320;BME280;4197;42.130;24.746;2022-08-19T08:51:02;99041.66;;;31.21;37.01
8320;BME280;4197;42.130;24.746;2022-08-19T08:53:35;99046.78;;;31.39;36.98
8320;BME280;4197;42.130;24.746;2022-08-19T08:56:09;99044.25;;;31.52;36.19
8320;BME280;4197;42.130;24.746;2022-08-19T08:58:49;99037.38;;;31.65;35.62
8320;BME280;4197;42.130;24.746;2022-08-19T09:01:20;99039.94;;;31.68;35.61
8320;BME280;4197;42.130;24.746;2022-08-19T09:03:50;99045.78;;;31.65;36.11
8320;BME280;4197;42.130;24.746;2022-08-19T09:06:26;99036.38;;;31.85;35.00
8320;BME280;4197;42.130;24.746;2022-08-19T09:09:03;99034.31;;;31.91;34.01
8320;BME280;4197;42.130;24.746;2022-08-19T09:11:47;99025.16;;;31.90;34.17
8320;BME280;4197;42.130;24.746;2022-08-19T09:14:34;99029.00;;;31.98;34.31
8320;BME280;4197;42.130;24.746;2022-08-19T09:17:23;99022.09;;;32.05;34.19
8320;BME280;4197;42.130;24.746;2022-08-19T09:19:57;99019.00;;;32.20;34.09
8320;BME280;4197;42.130;24.746;2022-08-19T09:22:27;99014.34;;;32.51;32.03
8320;BME280;4197;42.130;24.746;2022-08-19T09:24:55;99006.69;;;32.46;32.93
8320;BME280;4197;42.130;24.746;2022-08-19T09:27:25;99011.28;;;32.54;32.44
8320;BME280;4197;42.130;24.746;2022-08-19T09:30:16;99010.47;;;32.65;32.27
8320;BME280;4197;42.130;24.746;2022-08-19T09:32:45;99007.41;;;32.63;31.93
8320;BME280;4197;42.130;24.746;2022-08-19T09:35:21;99011.94;;;32.77;32.45
8320;BME280;4197;42.130;24.746;2022-08-19T09:37:51;99011.63;;;32.86;32.42
8320;BME280;4197;42.130;24.746;2022-08-19T09:40:25;99011.09;;;32.94;31.42
8320;BME280;4197;42.130;24.746;2022-08-19T09:42:57;99007.75;;;33.06;31.28
8320;BME280;4197;42.130;24.746;2022-08-19T09:45:39;99005.63;;;33.18;31.82
8320;BME280;4197;42.130;24.746;2022-08-19T09:48:07;99004.50;;;33.32;30.63
8320;BME280;4197;42.130;24.746;2022-08-19T09:50:45;98997.09;;;33.29;30.63
8320;BME280;4197;42.130;24.746;2022-08-19T09:53:18;99003.19;;;33.33;30.50
8320;BME280;4197;42.130;24.746;2022-08-19T09:55:50;98999.03;;;33.46;29.12
8320;BME280;4197;42.130;24.746;2022-08-19T09:58:18;99001.34;;;33.42;28.95
8320;BME280;4197;42.130;24.746;2022-08-19T10:00:52;98993.72;;;33.37;30.12
8320;BME280;4197;42.130;24.746;2022-08-19T10:03:20;98988.25;;;33.50;29.42
8320;BME280;4197;42.130;24.746;2022-08-19T10:05:58;98989.78;;;33.57;29.38
8320;BME280;4197;42.130;24.746;2022-08-19T10:08:28;98983.44;;;33.45;29.75
8320;BME280;4197;42.130;24.746;2022-08-19T10:10:58;98979.00;;;33.25;30.10
8320;BME280;4197;42.130;24.746;2022-08-19T10:13:47;98975.34;;;33.36;30.25
8320;BME280;4197;42.130;24.746;2022-08-19T10:16:17;98976.84;;;33.37;30.06
8320;BME280;4197;42.130;24.746;2022-08-19T10:18:46;98977.53;;;33.54;29.27
8320;BME280;4197;42.130;24.746;2022-08-19T10:21:18;98968.75;;;33.63;29.84
8320;BME280;4197;42.130;24.746;2022-08-19T10:23:49;98963.72;;;33.81;28.91
8320;BME280;4197;42.130;24.746;2022-08-19T10:26:20;98965.84;;;33.74;29.03
8320;BME280;4197;42.130;24.746;2022-08-19T10:28:52;98969.06;;;33.84;29.29
8320;BME280;4197;42.130;24.746;2022-08-19T10:31:26;98957.03;;;33.84;29.32
8320;BME280;4197;42.130;24.746;2022-08-19T10:34:15;98949.28;;;33.95;28.31
8320;BME280;4197;42.130;24.746;2022-08-19T10:36:55;98954.75;;;34.12;28.83
8320;BME280;4197;42.130;24.746;2022-08-19T10:39:27;98959.22;;;33.96;28.38
8320;BME280;4197;42.130;24.746;2022-08-19T10:42:08;98947.91;;;34.02;28.20
8320;BME280;4197;42.130;24.746;2022-08-19T10:44:37;98957.31;;;34.10;27.57
8320;BME280;4197;42.130;24.746;2022-08-19T10:47:06;98955.19;;;34.16;27.78
8320;BME280;4197;42.130;24.746;2022-08-19T10:49:51;98952.75;;;34.07;28.08
8320;BME280;4197;42.130;24.746;2022-08-19T10:52:39;98950.56;;;34.19;28.30
8320;BME280;4197;42.130;24.746;2022-08-19T10:55:18;98951.22;;;34.06;27.68
8320;BME280;4197;42.130;24.746;2022-08-19T11:00:58;98954.00;;;33.82;27.89
8320;BME280;4197;42.130;24.746;2022-08-19T11:03:27;98940.59;;;33.93;28.04
8320;BME280;4197;42.130;24.746;2022-08-19T11:05:59;98939.59;;;33.91;27.79
8320;BME280;4197;42.130;24.746;2022-08-19T11:08:30;98941.44;;;34.13;27.27
8320;BME280;4197;42.130;24.746;2022-08-19T11:10:59;98931.28;;;34.29;27.06
8320;BME280;4197;42.130;24.746;2022-08-19T11:13:31;98935.59;;;34.30;26.78
8320;BME280;4197;42.130;24.746;2022-08-19T11:16:02;98928.28;;;34.21;27.00
8320;BME280;4197;42.130;24.746;2022-08-19T11:18:35;98927.69;;;34.28;27.07
8320;BME280;4197;42.130;24.746;2022-08-19T11:21:09;98926.47;;;34.24;27.42
8320;BME280;4197;42.130;24.746;2022-08-19T11:23:39;98919.03;;;34.26;27.15
8320;BME280;4197;42.130;24.746;2022-08-19T11:26:08;98921.28;;;34.28;27.25
8320;BME280;4197;42.130;24.746;2022-08-19T11:28:37;98922.84;;;34.48;25.68
8320;BME280;4197;42.130;24.746;2022-08-19T11:31:09;98917.69;;;34.71;25.05
8320;BME280;4197;42.130;24.746;2022-08-19T11:33:38;98911.50;;;34.72;23.76
8320;BME280;4197;42.130;24.746;2022-08-19T11:36:06;98912.28;;;34.73;24.21
8320;BME280;4197;42.130;24.746;2022-08-19T11:38:39;98919.84;;;34.97;24.57
8320;BME280;4197;42.130;24.746;2022-08-19T11:41:07;98912.38;;;34.99;24.68
8320;BME280;4197;42.130;24.746;2022-08-19T11:43:36;98917.78;;;34.97;24.88
8320;BME280;4197;42.130;24.746;2022-08-19T11:46:08;98903.78;;;34.92;25.04
8320;BME280;4197;42.130;24.746;2022-08-19T11:48:37;98910.97;;;34.93;24.67
8320;BME280;4197;42.130;24.746;2022-08-19T11:51:07;98906.31;;;34.95;25.44
8320;BME280;4197;42.130;24.746;2022-08-19T11:53:37;98898.75;;;35.03;25.02
8320;BME280;4197;42.130;24.746;2022-08-19T11:56:08;98892.50;;;35.11;25.40
8320;BME280;4197;42.130;24.746;2022-08-19T11:58:37;98890.09;;;35.34;24.64
8320;BME280;4197;42.130;24.746;2022-08-19T12:01:06;98884.56;;;35.55;24.43
8320;BME280;4197;42.130;24.746;2022-08-19T12:03:35;98888.41;;;35.25;24.61
8320;BME280;4197;42.130;24.746;2022-08-19T12:06:04;98886.88;;;35.11;24.66
8320;BME280;4197;42.130;24.746;2022-08-19T12:08:33;98888.56;;;35.00;24.84
8320;BME280;4197;42.130;24.746;2022-08-19T12:11:01;98878.34;;;34.97;24.85
8320;BME280;4197;42.130;24.746;2022-08-19T12:13:31;98875.66;;;35.05;24.96
8320;BME280;4197;42.130;24.746;2022-08-19T12:15:59;98870.75;;;35.24;24.95
8320;BME280;4197;42.130;24.746;2022-08-19T12:18:29;98880.09;;;35.33;24.70
8320;BME280;4197;42.130;24.746;2022-08-19T12:20:57;98874.22;;;35.30;24.42
8320;BME280;4197;42.130;24.746;2022-08-19T12:23:27;98875.31;;;35.27;24.32
8320;BME280;4197;42.130;24.746;2022-08-19T12:25:55;98863.94;;;35.20;24.39
8320;BME280;4197;42.130;24.746;2022-08-19T12:28:24;98860.72;;;35.42;24.40
8320;BME280;4197;42.130;24.746;2022-08-19T12:30:56;98870.47;;;35.41;24.08
8320;BME280;4197;42.130;24.746;2022-08-19T12:33:25;98860.47;;;35.27;24.05
8320;BME280;4197;42.130;24.746;2022-08-19T12:36:00;98861.44;;;34.97;24.39
8320;BME280;4197;42.130;24.746;2022-08-19T12:38:29;98855.59;;;34.95;24.36
8320;BME280;4197;42.130;24.746;2022-08-19T12:40:58;98851.00;;;35.11;24.38
8320;BME280;4197;42.130;24.746;2022-08-19T12:43:27;98851.97;;;35.14;24.65
8320;BME280;4197;42.130;24.746;2022-08-19T12:45:59;98852.25;;;35.29;24.70
8320;BME280;4197;42.130;24.746;2022-08-19T12:48:27;98853.53;;;35.41;24.87
8320;BME280;4197;42.130;24.746;2022-08-19T12:51:05;98852.69;;;35.46;24.62
8320;BME280;4197;42.130;24.746;2022-08-19T12:53:34;98853.06;;;35.56;24.41
8320;BME280;4197;42.130;24.746;2022-08-19T12:56:05;98855.34;;;35.71;24.35
8320;BME280;4197;42.130;24.746;2022-08-19T12:58:38;98853.38;;;35.79;24.44
8320;BME280;4197;42.130;24.746;2022-08-19T13:01:18;98844.91;;;35.92;23.88
8320;BME280;4197;42.130;24.746;2022-08-19T13:03:49;98841.63;;;36.02;23.16
8320;BME280;4197;42.130;24.746;2022-08-19T13:06:18;98837.50;;;36.03;23.31
8320;BME280;4197;42.130;24.746;2022-08-19T13:08:48;98838.41;;;35.84;23.47
8320;BME280;4197;42.130;24.746;2022-08-19T13:11:18;98836.09;;;35.96;23.85
8320;BME280;4197;42.130;24.746;2022-08-19T13:13:48;98832.66;;;35.90;23.73
8320;BME280;4197;42.130;24.746;2022-08-19T13:16:19;98832.66;;;35.90;23.65
8320;BME280;4197;42.130;24.746;2022-08-19T13:18:48;98827.88;;;35.85;23.63
8320;BME280;4197;42.130;24.746;2022-08-19T13:21:19;98823.84;;;35.80;23.86
8320;BME280;4197;42.130;24.746;2022-08-19T13:23:51;98833.22;;;35.62;23.69
8320;BME280;4197;42.130;24.746;2022-08-19T13:26:20;98824.88;;;35.56;24.13
8320;BME280;4197;42.130;24.746;2022-08-19T13:28:49;98831.38;;;35.64;23.78
8320;BME280;4197;42.130;24.746;2022-08-19T13:31:38;98830.38;;;35.75;23.82
8320;BME280;4197;42.130;24.746;2022-08-19T13:34:28;98831.91;;;35.76;23.54
8320;BME280;4197;42.130;24.746;2022-08-19T13:36:58;98823.91;;;35.67;24.01
8320;BME280;4197;42.130;24.746;2022-08-19T13:39:29;98815.31;;;35.59;23.80